createdAt,value
2022-11-15T00:00:54.521Z,11.67
2022-11-15T00:03:23.603Z,11.69
2022-11-15T00:05:50.467Z,11.71
2022-11-15T00:08:17.135Z,11.74
2022-11-15T00:10:44.037Z,11.76
2022-11-15T00:13:12.769Z,11.77
2022-11-15T00:15:40.633Z,11.79
2022-11-15T00:18:12.726Z,11.80
2022-11-15T00:20:39.189Z,11.82
2022-11-15T00:23:06.100Z,11.84
2022-11-15T00:25:33.496Z,11.86
2022-11-15T00:28:01.492Z,11.89
2022-11-15T00:30:28.854Z,11.90
2022-11-15T00:32:55.725Z,11.93
2022-11-15T00:35:22.853Z,11.95
2022-11-15T00:37:49.433Z,11.97
2022-11-15T00:40:16.584Z,12.00
2022-11-15T00:42:42.994Z,12.02
2022-11-15T00:45:10.183Z,12.04
2022-11-15T00:47:36.715Z,12.06
2022-11-15T00:50:03.455Z,12.08
2022-11-15T00:52:29.810Z,12.10
2022-11-15T00:54:56.169Z,12.14
2022-11-15T00:57:22.595Z,12.14
2022-11-15T00:59:48.924Z,12.16
2022-11-15T01:02:15.282Z,12.17
2022-11-15T01:04:41.767Z,12.19
2022-11-15T01:07:08.277Z,12.20
2022-11-15T01:09:34.743Z,12.22
2022-11-15T01:12:01.171Z,12.22
2022-11-15T01:14:27.553Z,12.24
2022-11-15T01:16:54.319Z,12.24
2022-11-15T01:19:20.777Z,12.25
2022-11-15T01:21:49.965Z,12.27
2022-11-15T01:24:16.640Z,12.27
2022-11-15T01:26:42.986Z,12.29
2022-11-15T01:29:09.300Z,12.29
2022-11-15T01:31:35.725Z,12.30
2022-11-15T01:34:02.129Z,12.29
2022-11-15T01:36:28.484Z,12.31
2022-11-15T01:38:56.178Z,12.32
2022-11-15T01:41:26.168Z,12.34
2022-11-15T01:43:55.669Z,12.36
2022-11-15T01:46:39.243Z,12.38
2022-11-15T01:49:14.052Z,12.40
2022-11-15T01:51:40.746Z,12.40
2022-11-15T01:54:12.465Z,12.41
2022-11-15T01:56:46.435Z,12.44
2022-11-15T01:59:13.513Z,12.44
2022-11-15T02:01:40.023Z,12.47
2022-11-15T02:04:12.592Z,12.48
2022-11-15T02:06:40.618Z,12.50
2022-11-15T02:09:06.985Z,12.51
2022-11-15T02:11:33.758Z,12.53
2022-11-15T02:14:02.177Z,12.56
2022-11-15T02:16:28.439Z,12.56
2022-11-15T02:19:14.359Z,12.58
2022-11-15T02:21:51.137Z,12.61
2022-11-15T02:24:49.563Z,12.61
2022-11-15T02:27:50.818Z,12.63
2022-11-15T02:30:21.438Z,12.64
2022-11-15T02:32:55.582Z,12.66
2022-11-15T02:35:36.658Z,12.67
2022-11-15T02:38:32.178Z,12.67
2022-11-15T02:41:10.214Z,12.68
2022-11-15T02:43:58.133Z,12.67
2022-11-15T02:47:03.301Z,12.68
2022-11-15T02:49:33.153Z,12.70
2022-11-15T02:51:59.514Z,12.69
2022-11-15T02:54:33.102Z,12.71
2022-11-15T02:57:05.386Z,12.72
2022-11-15T02:59:43.940Z,12.74
2022-11-15T03:02:21.097Z,12.76
2022-11-15T03:04:57.133Z,12.79
2022-11-15T03:07:30.261Z,12.78
2022-11-15T03:10:18.792Z,12.81
2022-11-15T03:12:55.416Z,12.83
2022-11-15T03:15:37.337Z,12.85
2022-11-15T03:18:13.746Z,12.87
2022-11-15T03:20:40.947Z,12.86
2022-11-15T03:23:10.042Z,12.88
2022-11-15T03:25:41.551Z,12.91
2022-11-15T03:28:12.600Z,12.92
2022-11-15T03:30:40.832Z,12.93
2022-11-15T03:33:09.143Z,12.94
2022-11-15T03:35:40.106Z,12.98
2022-11-15T03:38:17.708Z,13.00
2022-11-15T03:40:50.178Z,13.03
2022-11-15T03:43:30.793Z,13.05
2022-11-15T03:46:03.139Z,13.08
2022-11-15T03:48:37.166Z,13.10
2022-11-15T03:51:05.073Z,13.13
2022-11-15T03:53:32.983Z,13.14
2022-11-15T03:55:59.603Z,13.16
2022-11-15T03:58:26.127Z,13.19
2022-11-15T04:00:52.595Z,13.21
2022-11-15T04:03:18.970Z,13.22
2022-11-15T04:05:45.306Z,13.25
2022-11-15T04:08:11.633Z,13.27
2022-11-15T04:10:38.121Z,13.30
2022-11-15T04:13:04.513Z,13.30
2022-11-15T04:15:30.929Z,13.32
2022-11-15T04:17:58.109Z,13.33
2022-11-15T04:20:46.101Z,13.36
2022-11-15T04:23:35.660Z,13.36
2022-11-15T04:26:05.217Z,13.39
2022-11-15T04:28:31.856Z,13.40
2022-11-15T04:30:58.314Z,13.41
2022-11-15T04:33:24.698Z,13.42
2022-11-15T04:36:30.295Z,13.44
2022-11-15T04:38:56.729Z,13.47
2022-11-15T04:41:23.073Z,13.48
2022-11-15T04:43:49.403Z,13.50
2022-11-15T04:46:15.755Z,13.51
2022-11-15T04:48:42.153Z,13.53
2022-11-15T04:51:08.523Z,13.54
2022-11-15T04:53:35.157Z,13.55
2022-11-15T04:56:01.575Z,13.57
2022-11-15T04:58:27.925Z,13.57
2022-11-15T05:00:54.479Z,13.58
2022-11-15T05:03:39.279Z,13.58
2022-11-15T05:06:06.370Z,13.59
2022-11-15T05:08:33.108Z,13.60
2022-11-15T05:10:59.490Z,13.60
2022-11-15T05:13:25.865Z,13.62
2022-11-15T05:15:52.205Z,13.63
2022-11-15T05:18:23.335Z,13.65
2022-11-15T05:20:50.220Z,13.66
2022-11-15T05:23:16.559Z,13.67
2022-11-15T05:25:43.005Z,13.68
2022-11-15T05:28:09.387Z,13.68
2022-11-15T05:30:35.737Z,13.69
2022-11-15T05:33:02.556Z,13.70
2022-11-15T05:35:39.654Z,13.74
2022-11-15T05:38:06.185Z,13.74
2022-11-15T05:40:33.506Z,13.75
2022-11-15T05:43:02.387Z,13.78
2022-11-15T05:45:29.711Z,13.79
2022-11-15T05:47:59.542Z,13.82
2022-11-15T05:50:26.609Z,13.82
2022-11-15T05:52:53.090Z,13.85
2022-11-15T05:55:19.566Z,13.86
2022-11-15T05:57:45.947Z,13.88
2022-11-15T06:00:12.980Z,13.90
2022-11-15T06:02:39.363Z,13.92
2022-11-15T06:05:06.213Z,13.92
2022-11-15T06:07:32.739Z,13.95
2022-11-15T06:09:59.114Z,13.96
2022-11-15T06:12:25.484Z,13.98
2022-11-15T06:14:51.831Z,13.99
2022-11-15T06:17:18.151Z,14.01
2022-11-15T06:19:44.480Z,14.02
2022-11-15T06:22:10.861Z,14.04
2022-11-15T06:24:37.222Z,14.05
2022-11-15T06:27:03.678Z,14.07
2022-11-15T06:29:30.025Z,14.09
2022-11-15T06:31:56.369Z,14.10
2022-11-15T06:34:22.837Z,14.10
2022-11-15T06:36:49.269Z,14.10
2022-11-15T06:39:15.692Z,14.12
2022-11-15T06:41:42.069Z,14.09
2022-11-15T06:44:08.408Z,14.08
2022-11-15T06:46:34.795Z,14.05
2022-11-15T06:49:05.195Z,14.01
2022-11-15T06:51:34.652Z,13.99
2022-11-15T06:54:02.184Z,13.95
2022-11-15T06:56:28.722Z,13.95
2022-11-15T06:58:56.210Z,13.93
2022-11-15T07:01:22.612Z,13.93
2022-11-15T07:03:48.972Z,13.94
2022-11-15T07:06:15.403Z,13.94
2022-11-15T07:08:42.689Z,13.96
2022-11-15T07:11:09.927Z,13.98
2022-11-15T07:13:38.013Z,14.01
2022-11-15T07:16:06.530Z,14.03
2022-11-15T07:18:36.054Z,14.07
2022-11-15T07:21:06.692Z,14.10
2022-11-15T07:23:34.093Z,14.14
2022-11-15T07:26:00.718Z,14.16
2022-11-15T07:28:28.065Z,14.19
2022-11-15T07:30:54.691Z,14.21
2022-11-15T07:33:21.035Z,14.24
2022-11-15T07:35:50.552Z,14.26
2022-11-15T07:38:21.372Z,14.28
2022-11-15T07:40:48.525Z,14.30
2022-11-15T07:43:14.987Z,14.33
2022-11-15T07:45:43.647Z,14.37
2022-11-15T07:48:10.583Z,14.38
2022-11-15T07:50:36.909Z,14.40
2022-11-15T07:53:03.292Z,14.42
2022-11-15T07:55:30.610Z,14.46
2022-11-15T07:58:04.694Z,14.47
2022-11-15T08:00:31.952Z,14.50
2022-11-15T08:03:10.581Z,14.53
2022-11-15T08:05:38.160Z,14.54
2022-11-15T08:08:05.443Z,14.56
2022-11-15T08:10:34.230Z,14.59
2022-11-15T08:13:06.711Z,14.61
2022-11-15T08:15:33.837Z,14.63
2022-11-15T08:18:04.616Z,14.65
2022-11-15T08:20:31.628Z,14.68
2022-11-15T08:22:59.000Z,14.69
2022-11-15T08:25:29.478Z,14.73
2022-11-15T08:27:57.987Z,14.75
2022-11-15T08:30:27.766Z,14.78
2022-11-15T08:32:54.687Z,14.80
2022-11-15T08:35:27.677Z,14.81
2022-11-15T08:37:55.608Z,14.84
2022-11-15T08:40:22.005Z,14.86
2022-11-15T08:42:48.457Z,14.89
2022-11-15T08:45:15.415Z,14.92
2022-11-15T08:47:41.748Z,14.96
2022-11-15T08:50:08.591Z,14.98
2022-11-15T08:52:35.054Z,15.01
2022-11-15T08:55:01.428Z,15.04
2022-11-15T08:57:31.245Z,15.09
2022-11-15T08:59:58.102Z,15.09
2022-11-15T09:02:24.551Z,15.12
2022-11-15T09:04:50.899Z,15.15
2022-11-15T09:07:17.436Z,15.17
2022-11-15T09:09:43.918Z,15.18
2022-11-15T09:12:10.530Z,15.21
2022-11-15T09:14:36.922Z,15.25
2022-11-15T09:17:04.047Z,15.28
2022-11-15T09:19:30.441Z,15.33
2022-11-15T09:21:56.789Z,15.38
2022-11-15T09:24:23.417Z,15.44
2022-11-15T09:26:52.172Z,15.50
2022-11-15T09:29:19.671Z,15.56
2022-11-15T09:31:46.063Z,15.62
2022-11-15T09:34:12.867Z,15.70
2022-11-15T09:36:39.278Z,15.78
2022-11-15T09:39:05.634Z,15.86
2022-11-15T09:41:47.447Z,15.94
2022-11-15T09:44:29.264Z,16.00
2022-11-15T09:47:10.062Z,16.08
2022-11-15T09:49:36.594Z,16.11
2022-11-15T09:52:03.685Z,16.15
2022-11-15T09:54:52.609Z,16.17
2022-11-15T09:57:32.236Z,16.19
2022-11-15T10:03:16.457Z,16.26
2022-11-15T10:05:51.593Z,16.27
2022-11-15T10:08:36.899Z,16.30
2022-11-15T10:11:36.051Z,16.33
2022-11-15T10:14:05.291Z,16.36
2022-11-15T10:16:46.806Z,16.37
2022-11-15T10:19:25.433Z,16.41
2022-11-15T10:22:05.719Z,16.44
2022-11-15T10:24:38.023Z,16.47
2022-11-15T10:27:14.303Z,16.50
2022-11-15T10:29:45.998Z,16.54
2022-11-15T10:32:14.579Z,16.59
2022-11-15T10:34:41.644Z,16.64
2022-11-15T10:37:08.213Z,16.66
2022-11-15T10:39:35.022Z,16.73
2022-11-15T10:42:28.933Z,16.79
2022-11-15T10:44:55.761Z,16.82
2022-11-15T10:47:37.766Z,16.87
2022-11-15T10:50:28.323Z,16.90
2022-11-15T10:52:55.081Z,16.91
2022-11-15T10:55:26.190Z,16.94
2022-11-15T10:57:55.452Z,16.96
2022-11-15T11:00:22.052Z,16.98
2022-11-15T11:03:07.920Z,17.02
2022-11-15T11:05:42.276Z,17.04
2022-11-15T11:08:15.459Z,17.09
2022-11-15T11:11:02.103Z,17.13
2022-11-15T11:13:31.161Z,17.17
2022-11-15T11:16:15.881Z,17.25
2022-11-15T11:19:16.521Z,17.29
2022-11-15T11:22:20.993Z,17.35
2022-11-15T11:24:53.085Z,17.40
2022-11-15T11:27:41.303Z,17.44
2022-11-15T11:30:10.810Z,17.45
2022-11-15T11:32:54.847Z,17.48
2022-11-15T11:35:46.260Z,17.48
2022-11-15T11:38:16.136Z,17.48
2022-11-15T11:41:16.894Z,17.50
2022-11-15T11:44:04.804Z,17.51
2022-11-15T11:46:50.507Z,17.52
2022-11-15T11:49:24.368Z,17.52
2022-11-15T11:52:08.701Z,17.49
2022-11-15T11:54:53.705Z,17.46
2022-11-15T11:57:41.241Z,17.42
2022-11-15T12:00:19.668Z,17.37
2022-11-15T12:02:55.455Z,17.31
2022-11-15T12:05:42.741Z,17.29
2022-11-15T12:08:31.835Z,17.29
2022-11-15T12:11:18.247Z,17.29
2022-11-15T12:13:47.821Z,17.31
2022-11-15T12:16:19.906Z,17.33
2022-11-15T12:18:51.731Z,17.36
2022-11-15T12:21:35.757Z,17.39
2022-11-15T12:24:18.810Z,17.41
2022-11-15T12:27:01.305Z,17.43
2022-11-15T12:29:45.842Z,17.45
2022-11-15T12:32:25.093Z,17.46
2022-11-15T12:34:53.113Z,17.46
2022-11-15T12:37:50.066Z,17.47
2022-11-15T12:40:21.352Z,17.52
2022-11-15T12:42:59.649Z,17.52
2022-11-15T12:45:32.524Z,17.51
2022-11-15T12:48:17.304Z,17.51
2022-11-15T12:50:55.897Z,17.50
2022-11-15T12:53:28.664Z,17.52
2022-11-15T12:56:04.268Z,17.52
2022-11-15T12:58:58.165Z,17.55
2022-11-15T13:01:36.869Z,17.58
2022-11-15T13:04:25.344Z,17.57
2022-11-15T13:06:54.079Z,17.57
2022-11-15T13:09:38.337Z,17.56
2022-11-15T13:12:13.526Z,17.54
2022-11-15T13:14:44.449Z,17.54
2022-11-15T13:17:18.136Z,17.52
2022-11-15T13:19:47.413Z,17.53
2022-11-15T13:22:32.330Z,17.51
2022-11-15T13:25:01.643Z,17.49
2022-11-15T13:27:28.285Z,17.48
2022-11-15T13:29:54.748Z,17.48
2022-11-15T13:32:22.175Z,17.49
2022-11-15T13:34:53.577Z,17.51
2022-11-15T13:37:22.974Z,17.53
2022-11-15T13:39:50.232Z,17.53
2022-11-15T13:42:21.290Z,17.55
2022-11-15T13:45:02.497Z,17.55
2022-11-15T13:47:30.642Z,17.54
2022-11-15T13:50:01.878Z,17.52
2022-11-15T13:52:34.847Z,17.51
2022-11-15T13:55:09.280Z,17.51
2022-11-15T13:57:44.478Z,17.51
2022-11-15T14:00:29.327Z,17.50
2022-11-15T14:02:57.515Z,17.49
2022-11-15T14:05:26.787Z,17.50
2022-11-15T14:08:03.449Z,17.50
2022-11-15T14:10:38.329Z,17.49
2022-11-15T14:13:11.602Z,17.47
2022-11-15T14:15:39.692Z,17.46
2022-11-15T14:18:06.947Z,17.42
2022-11-15T14:20:37.959Z,17.40
2022-11-15T14:23:40.045Z,17.34
2022-11-15T14:26:11.898Z,17.28
2022-11-15T14:28:41.190Z,17.21
2022-11-15T14:31:14.091Z,17.17
2022-11-15T14:33:41.034Z,17.08
2022-11-15T14:36:16.272Z,17.04
2022-11-15T14:38:43.858Z,16.97
2022-11-15T14:41:27.273Z,16.93
2022-11-15T14:43:54.233Z,16.86
2022-11-15T14:46:20.757Z,16.80
2022-11-15T14:48:47.170Z,16.75
2022-11-15T14:51:16.498Z,16.70
2022-11-15T14:53:43.995Z,16.64
2022-11-15T14:56:11.386Z,16.60
2022-11-15T14:58:37.778Z,16.56
2022-11-15T15:01:13.756Z,16.51
2022-11-15T15:03:40.053Z,16.50
2022-11-15T15:06:06.577Z,16.45
2022-11-15T15:08:33.143Z,16.37
2022-11-15T15:10:59.798Z,16.30
2022-11-15T15:13:26.208Z,16.24
2022-11-15T15:15:53.231Z,16.17
2022-11-15T15:18:20.858Z,16.10
2022-11-15T15:20:55.102Z,16.05
2022-11-15T15:23:21.832Z,15.98
2022-11-15T15:25:50.285Z,15.92
2022-11-15T15:28:16.925Z,15.86
2022-11-15T15:30:43.260Z,15.80
2022-11-15T15:33:09.622Z,15.75
2022-11-15T15:35:37.490Z,15.68
2022-11-15T15:38:05.912Z,15.63
2022-11-15T15:40:34.181Z,15.59
2022-11-15T15:43:01.341Z,15.53
2022-11-15T15:45:28.560Z,15.47
2022-11-15T15:47:54.978Z,15.43
2022-11-15T15:50:29.838Z,15.39
2022-11-15T15:52:59.106Z,15.34
2022-11-15T15:55:26.194Z,15.29
2022-11-15T15:57:53.304Z,15.24
2022-11-15T16:00:21.367Z,15.20
2022-11-15T16:02:47.940Z,15.15
2022-11-15T16:05:14.369Z,15.11
2022-11-15T16:07:41.445Z,15.07
2022-11-15T16:10:29.155Z,15.04
2022-11-15T16:12:56.932Z,15.00
2022-11-15T16:15:25.666Z,14.98
2022-11-15T16:17:56.984Z,14.97
2022-11-15T16:20:35.429Z,14.95
2022-11-15T16:23:08.707Z,14.93
2022-11-15T16:25:40.731Z,14.93
2022-11-15T16:28:25.415Z,14.93
2022-11-15T16:31:04.297Z,14.93
2022-11-15T16:33:31.339Z,14.92
2022-11-15T16:35:58.297Z,14.90
2022-11-15T16:38:26.762Z,14.90
2022-11-15T16:40:53.256Z,14.88
2022-11-15T16:43:19.644Z,14.87
2022-11-15T16:45:46.193Z,14.85
2022-11-15T16:48:27.162Z,14.83
2022-11-15T16:50:58.768Z,14.81
2022-11-15T16:53:26.228Z,14.77
2022-11-15T16:55:52.693Z,14.75
2022-11-15T16:58:19.032Z,14.70
2022-11-15T17:00:46.158Z,14.68
2022-11-15T17:03:12.663Z,14.65
2022-11-15T17:05:39.045Z,14.61
2022-11-15T17:08:06.430Z,14.59
2022-11-15T17:10:32.790Z,14.55
2022-11-15T17:12:59.137Z,14.51
2022-11-15T17:15:25.571Z,14.49
2022-11-15T17:17:53.852Z,14.45
2022-11-15T17:20:22.647Z,14.41
2022-11-15T17:22:48.994Z,14.37
2022-11-15T17:25:15.482Z,14.34
2022-11-15T17:27:42.318Z,14.32
2022-11-15T17:30:19.968Z,14.30
2022-11-15T17:32:47.801Z,14.27
2022-11-15T17:35:15.853Z,14.23
2022-11-15T17:37:42.574Z,14.21
2022-11-15T17:40:09.608Z,14.19
2022-11-15T17:42:35.976Z,14.16
2022-11-15T17:45:08.185Z,14.15
2022-11-15T17:47:36.369Z,14.14
2022-11-15T17:50:02.947Z,14.12
2022-11-15T17:52:29.297Z,14.11
2022-11-15T17:54:55.630Z,14.09
2022-11-15T17:57:21.969Z,14.10
2022-11-15T18:00:01.076Z,14.09
2022-11-15T18:02:27.400Z,14.09
2022-11-15T18:04:53.883Z,14.09
2022-11-15T18:07:20.260Z,14.07
2022-11-15T18:09:46.674Z,14.08
2022-11-15T18:12:13.260Z,14.07
2022-11-15T18:14:39.655Z,14.07
2022-11-15T18:17:06.000Z,14.06
2022-11-15T18:19:32.528Z,14.09
2022-11-15T18:22:00.743Z,14.11
2022-11-15T18:24:29.925Z,14.14
2022-11-15T18:26:57.821Z,14.15
2022-11-15T18:29:24.892Z,14.20
2022-11-15T18:31:55.449Z,14.24
2022-11-15T18:34:28.738Z,14.30
2022-11-15T18:36:55.065Z,14.32
2022-11-15T18:39:21.412Z,14.36
2022-11-15T18:41:48.636Z,14.40
2022-11-15T18:44:15.757Z,14.45
2022-11-15T18:46:44.815Z,14.49
2022-11-15T18:49:13.100Z,14.53
2022-11-15T18:51:42.895Z,14.56
2022-11-15T18:54:11.772Z,14.60
2022-11-15T18:56:39.005Z,14.61
2022-11-15T18:59:06.375Z,14.65
2022-11-15T19:01:38.184Z,14.68
2022-11-15T19:04:22.153Z,14.72
2022-11-15T19:06:50.225Z,14.74
2022-11-15T19:09:18.825Z,14.78
2022-11-15T19:11:47.242Z,14.80
2022-11-15T19:14:16.351Z,14.84
2022-11-15T19:16:45.059Z,14.86
2022-11-15T19:19:19.880Z,14.90
2022-11-15T19:21:46.750Z,14.91
2022-11-15T19:24:13.448Z,14.96
2022-11-15T19:26:40.250Z,14.99
2022-11-15T19:29:08.031Z,15.00
2022-11-15T19:31:34.472Z,15.02
2022-11-15T19:34:04.470Z,15.05
2022-11-15T19:36:33.368Z,15.08
2022-11-15T19:39:05.153Z,15.11
2022-11-15T19:41:31.900Z,15.12
2022-11-15T19:43:58.259Z,15.14
2022-11-15T19:46:25.033Z,15.18
2022-11-15T19:48:51.749Z,15.19
2022-11-15T19:51:21.905Z,15.21
2022-11-15T19:53:49.675Z,15.22
2022-11-15T19:56:18.413Z,15.24
2022-11-15T19:58:45.743Z,15.26
2022-11-15T20:01:19.765Z,15.29
2022-11-15T20:03:47.724Z,15.30
2022-11-15T20:06:16.535Z,15.31
2022-11-15T20:08:43.804Z,15.31
2022-11-15T20:11:11.047Z,15.33
2022-11-15T20:13:37.478Z,15.33
2022-11-15T20:16:04.616Z,15.33
2022-11-15T20:18:31.317Z,15.35
2022-11-15T20:20:59.036Z,15.35
2022-11-15T20:23:26.838Z,15.36
2022-11-15T20:25:53.999Z,15.36
2022-11-15T20:28:23.409Z,15.39
2022-11-15T20:30:53.206Z,15.40
2022-11-15T20:33:20.509Z,15.40
2022-11-15T20:35:46.911Z,15.42
2022-11-15T20:38:13.310Z,15.43
2022-11-15T20:40:40.690Z,15.44
2022-11-15T20:43:11.219Z,15.45
2022-11-15T20:45:38.489Z,15.46
2022-11-15T20:48:05.282Z,15.47
2022-11-15T20:50:46.394Z,15.48
2022-11-15T20:53:15.337Z,15.49
2022-11-15T20:55:44.001Z,15.50
2022-11-15T20:58:11.223Z,15.50
2022-11-15T21:00:37.938Z,15.50
2022-11-15T21:03:08.145Z,15.51
2022-11-15T21:05:37.355Z,15.50
2022-11-15T21:08:03.907Z,15.51
2022-11-15T21:10:49.276Z,15.51
2022-11-15T21:13:15.664Z,15.52
2022-11-15T21:15:42.049Z,15.52
2022-11-15T21:18:08.596Z,15.52
2022-11-15T21:20:43.935Z,15.53
2022-11-15T21:23:11.589Z,15.54
2022-11-15T21:25:37.956Z,15.54
2022-11-15T21:28:04.506Z,15.55
2022-11-15T21:30:30.942Z,15.55
2022-11-15T21:32:57.434Z,15.54
2022-11-15T21:35:24.121Z,15.54
2022-11-15T21:37:56.525Z,15.53
2022-11-15T21:40:24.393Z,15.51
2022-11-15T21:42:50.785Z,15.50
2022-11-15T21:45:17.237Z,15.49
2022-11-15T21:47:46.456Z,15.47
2022-11-15T21:50:13.704Z,15.45
2022-11-15T21:52:40.574Z,15.44
2022-11-15T21:55:07.575Z,15.42
2022-11-15T21:57:34.090Z,15.41
2022-11-15T22:00:19.221Z,15.40
2022-11-15T22:02:45.696Z,15.39
2022-11-15T22:05:12.068Z,15.39
2022-11-15T22:07:38.532Z,15.39
2022-11-15T22:10:05.691Z,15.37
2022-11-15T22:12:32.040Z,15.36
2022-11-15T22:14:58.433Z,15.36
2022-11-15T22:17:44.929Z,15.36
2022-11-15T22:20:29.976Z,15.41
2022-11-15T22:22:58.806Z,15.39
2022-11-15T22:25:26.300Z,15.37
2022-11-15T22:27:53.503Z,15.35
2022-11-15T22:30:20.597Z,15.34
2022-11-15T22:32:47.452Z,15.34
2022-11-15T22:35:14.269Z,15.33
2022-11-15T22:37:41.122Z,15.32
2022-11-15T22:40:08.453Z,15.32
2022-11-15T22:42:34.889Z,15.33
2022-11-15T22:45:01.238Z,15.33
2022-11-15T22:47:27.643Z,15.34
2022-11-15T22:49:54.113Z,15.35
2022-11-15T22:52:20.515Z,15.35
2022-11-15T22:54:46.902Z,15.34
2022-11-15T22:57:13.273Z,15.35
2022-11-15T22:59:41.036Z,15.36
2022-11-15T23:02:07.381Z,15.36
2022-11-15T23:04:33.875Z,15.38
2022-11-15T23:07:00.255Z,15.39
2022-11-15T23:09:26.705Z,15.39
2022-11-15T23:12:12.075Z,15.41
2022-11-15T23:14:38.472Z,15.42
2022-11-15T23:17:04.843Z,15.42
2022-11-15T23:19:31.337Z,15.42
2022-11-15T23:22:16.349Z,15.42
2022-11-15T23:24:42.744Z,15.43
2022-11-15T23:27:09.201Z,15.42
2022-11-15T23:29:56.722Z,15.41
2022-11-15T23:32:41.875Z,15.41
2022-11-15T23:35:08.501Z,15.39
2022-11-15T23:37:35.427Z,15.36
2022-11-15T23:40:01.880Z,15.34
2022-11-15T23:42:28.274Z,15.33
2022-11-15T23:44:54.661Z,15.31
2022-11-15T23:47:21.168Z,15.28
2022-11-15T23:49:47.558Z,15.26
2022-11-15T23:52:15.489Z,15.23
2022-11-15T23:54:42.179Z,15.21
2022-11-15T23:57:11.820Z,15.18
2022-11-15T23:59:44.773Z,15.16
